createdAt,value
2019-02-07T00:00:56.586Z,76.30
2019-02-07T00:03:27.744Z,76.30
2019-02-07T00:05:57.140Z,76.30
2019-02-07T00:08:26.512Z,76.30
2019-02-07T00:10:55.973Z,76.30
2019-02-07T00:13:25.276Z,76.30
2019-02-07T00:15:54.592Z,76.20
2019-02-07T00:18:23.912Z,76.20
2019-02-07T00:20:53.204Z,76.20
2019-02-07T00:23:22.476Z,76.10
2019-02-07T00:25:51.831Z,76.10
2019-02-07T00:28:21.208Z,76.10
2019-02-07T00:30:50.472Z,76.20
2019-02-07T00:33:19.848Z,76.30
2019-02-07T00:35:49.147Z,76.40
2019-02-07T00:38:18.471Z,76.50
2019-02-07T00:40:47.799Z,76.40
2019-02-07T00:43:17.059Z,76.50
2019-02-07T00:45:46.467Z,76.30
2019-02-07T00:48:15.771Z,77.20
2019-02-07T00:50:45.155Z,76.50
2019-02-07T00:53:14.471Z,76.40
2019-02-07T00:55:43.775Z,76.40
2019-02-07T00:58:13.159Z,76.40
2019-02-07T01:00:42.535Z,76.40
2019-02-07T01:03:11.891Z,76.50
2019-02-07T01:05:41.447Z,76.60
2019-02-07T01:08:10.939Z,76.60
2019-02-07T01:10:40.404Z,76.70
2019-02-07T01:13:09.883Z,76.60
2019-02-07T01:15:39.359Z,76.60
2019-02-07T01:18:08.919Z,76.60
2019-02-07T01:20:38.814Z,77.30
2019-02-07T01:23:08.094Z,76.60
2019-02-07T01:25:37.431Z,76.60
2019-02-07T01:28:06.746Z,76.70
2019-02-07T01:30:36.082Z,76.70
2019-02-07T01:33:05.344Z,76.80
2019-02-07T01:35:35.043Z,76.70
2019-02-07T01:38:04.318Z,76.70
2019-02-07T01:40:33.802Z,76.70
2019-02-07T01:43:03.071Z,76.70
2019-02-07T01:45:32.362Z,76.80
2019-02-07T01:48:01.618Z,76.70
2019-02-07T01:50:31.219Z,76.90
2019-02-07T01:53:00.875Z,76.90
2019-02-07T01:55:30.474Z,77.00
2019-02-07T01:57:59.838Z,76.90
2019-02-07T02:00:29.881Z,76.90
2019-02-07T02:02:59.202Z,76.80
2019-02-07T02:05:28.750Z,76.70
2019-02-07T02:07:58.115Z,76.70
2019-02-07T02:10:28.058Z,76.70
2019-02-07T02:12:57.546Z,76.70
2019-02-07T02:15:27.318Z,76.80
2019-02-07T02:17:56.601Z,76.80
2019-02-07T02:20:27.253Z,76.90
2019-02-07T02:22:56.584Z,77.00
2019-02-07T02:25:25.981Z,77.00
2019-02-07T02:27:55.321Z,77.10
2019-02-07T02:30:26.597Z,77.10
2019-02-07T02:32:55.933Z,77.30
2019-02-07T02:35:25.497Z,77.40
2019-02-07T02:37:54.753Z,77.40
2019-02-07T02:40:24.157Z,78.40
2019-02-07T02:42:53.421Z,77.40
2019-02-07T02:45:23.534Z,77.30
2019-02-07T02:47:53.758Z,77.40
2019-02-07T02:50:23.005Z,77.50
2019-02-07T02:52:52.403Z,77.60
2019-02-07T02:55:33.277Z,77.60
2019-02-07T02:58:02.653Z,77.60
2019-02-07T03:01:00.506Z,77.60
2019-02-07T03:03:48.253Z,77.60
2019-02-07T03:06:51.552Z,77.50
2019-02-07T03:09:39.545Z,77.40
2019-02-07T03:12:30.949Z,77.40
2019-02-07T03:15:14.841Z,77.50
2019-02-07T03:18:08.909Z,77.50
2019-02-07T03:20:47.776Z,77.50
2019-02-07T03:23:51.801Z,77.60
2019-02-07T03:26:43.044Z,77.60
2019-02-07T03:29:21.068Z,77.60
2019-02-07T03:32:10.610Z,77.60
2019-02-07T03:34:58.937Z,77.60
2019-02-07T03:37:51.856Z,77.60
2019-02-07T03:40:38.636Z,77.60
2019-02-07T03:43:42.252Z,77.70
2019-02-07T03:46:30.776Z,77.70
2019-02-07T03:49:28.592Z,77.70
2019-02-07T03:52:20.132Z,77.80
2019-02-07T03:55:07.352Z,77.80
2019-02-07T03:57:59.944Z,78.70
2019-02-07T04:00:47.196Z,77.80
2019-02-07T04:03:35.516Z,77.90
2019-02-07T04:06:14.148Z,77.90
2019-02-07T04:08:59.368Z,78.00
2019-02-07T04:11:47.724Z,78.20
2019-02-07T04:14:39.031Z,78.20
2019-02-07T04:17:20.029Z,78.30
2019-02-07T04:20:11.636Z,78.30
2019-02-07T04:23:02.787Z,78.30
2019-02-07T04:26:00.701Z,78.30
2019-02-07T04:28:47.652Z,78.40
2019-02-07T04:31:29.101Z,78.50
2019-02-07T04:34:20.216Z,78.60
2019-02-07T04:37:17.608Z,78.70
2019-02-07T04:39:57.807Z,78.80
2019-02-07T04:42:37.755Z,78.90
2019-02-07T04:45:41.828Z,79.10
2019-02-07T04:48:28.968Z,79.50
2019-02-07T04:51:23.047Z,79.20
2019-02-07T04:54:06.103Z,79.20
2019-02-07T04:56:46.879Z,79.10
2019-02-07T04:59:35.371Z,79.20
2019-02-07T05:02:42.453Z,79.30
2019-02-07T05:05:32.724Z,79.40
2019-02-07T05:08:10.552Z,79.30
2019-02-07T05:10:57.511Z,79.50
2019-02-07T05:13:44.506Z,79.30
2019-02-07T05:16:39.319Z,79.50
2019-02-07T05:19:18.460Z,79.60
2019-02-07T05:22:06.999Z,79.60
2019-02-07T05:25:01.212Z,79.70
2019-02-07T05:27:55.603Z,79.70
2019-02-07T05:30:55.726Z,79.70
2019-02-07T05:33:42.671Z,79.80
2019-02-07T05:36:29.743Z,79.80
2019-02-07T05:39:20.831Z,79.90
2019-02-07T05:42:01.729Z,79.90
2019-02-07T05:44:41.742Z,80.00
2019-02-07T05:47:30.062Z,80.00
2019-02-07T05:50:28.771Z,80.00
2019-02-07T05:53:18.230Z,80.00
2019-02-07T05:56:04.963Z,80.00
2019-02-07T05:59:02.388Z,79.90
2019-02-07T06:02:02.658Z,79.90
2019-02-07T06:05:06.321Z,80.00
2019-02-07T06:07:54.654Z,79.90
2019-02-07T08:43:02.536Z,77.40
2019-02-07T08:45:59.404Z,78.00
2019-02-07T08:48:43.867Z,77.90
2019-02-07T08:51:36.283Z,77.90
2019-02-07T08:54:33.326Z,77.80
2019-02-07T08:57:36.539Z,77.70
2019-02-07T09:00:27.251Z,77.60
2019-02-07T09:03:14.379Z,77.50
2019-02-07T09:06:01.487Z,77.40
2019-02-07T09:08:51.296Z,77.30
2019-02-07T09:11:32.691Z,77.10
2019-02-07T09:14:12.075Z,76.90
2019-02-07T09:17:00.395Z,76.90
2019-02-07T09:19:50.391Z,76.70
2019-02-07T09:22:38.395Z,76.60
2019-02-07T09:25:39.043Z,76.50
2019-02-07T09:28:27.487Z,76.30
2019-02-07T09:31:21.855Z,76.20
2019-02-07T09:34:15.975Z,76.00
2019-02-07T09:37:02.862Z,75.90
2019-02-07T09:39:39.231Z,75.70
2019-02-07T09:42:39.438Z,75.40
2019-02-07T09:45:34.930Z,75.10
2019-02-07T09:48:25.887Z,74.90
2019-02-07T09:51:01.806Z,74.80
2019-02-07T09:53:52.944Z,74.70
2019-02-07T09:56:50.016Z,74.40
2019-02-07T09:59:37.366Z,74.20
2019-02-07T10:02:25.711Z,74.00
2019-02-07T10:05:04.666Z,74.20
2019-02-07T10:07:49.470Z,73.90
2019-02-07T10:10:33.686Z,73.60
2019-02-07T10:13:24.698Z,73.40
2019-02-07T10:16:06.612Z,73.10
2019-02-07T10:18:53.778Z,72.80
2019-02-07T10:21:44.842Z,72.50
2019-02-07T10:24:24.550Z,72.00
2019-02-07T10:27:11.555Z,71.80
2019-02-07T10:29:58.286Z,71.40
2019-02-07T10:32:55.642Z,71.00
2019-02-07T10:35:36.750Z,70.60
2019-02-07T10:38:23.820Z,70.10
2019-02-07T10:41:15.250Z,69.40
2019-02-07T10:43:58.086Z,69.60
2019-02-07T10:46:44.829Z,68.20
2019-02-07T10:49:25.013Z,67.40
2019-02-07T10:52:11.793Z,66.90
2019-02-07T10:54:58.574Z,66.40
2019-02-07T10:57:49.785Z,66.00
2019-02-07T11:00:37.995Z,65.80
2019-02-07T11:03:35.630Z,65.60
2019-02-07T11:06:24.561Z,65.40
2019-02-07T11:09:15.725Z,65.20
2019-02-07T11:12:16.685Z,64.80
2019-02-07T11:15:07.753Z,64.40
2019-02-07T11:17:58.857Z,64.10
2019-02-07T11:20:46.253Z,64.00
2019-02-07T11:23:52.909Z,63.70
2019-02-07T11:26:37.989Z,63.50
2019-02-07T11:29:35.617Z,63.20
2019-02-07T11:32:24.040Z,62.90
2019-02-07T11:35:11.157Z,62.70
2019-02-07T11:38:05.097Z,62.40
2019-02-07T11:40:54.146Z,62.20
2019-02-07T11:43:33.121Z,62.20
2019-02-07T11:46:27.039Z,62.10
2019-02-07T11:49:27.724Z,62.00
2019-02-07T11:52:15.064Z,61.80
2019-02-07T11:55:18.709Z,61.30
2019-02-07T11:58:07.107Z,61.10
2019-02-07T12:00:55.436Z,61.00
2019-02-07T12:03:42.176Z,60.80
2019-02-07T12:06:20.156Z,60.80
2019-02-07T12:08:57.328Z,60.70
2019-02-07T12:11:51.749Z,60.70
2019-02-07T12:14:40.616Z,60.60
2019-02-07T12:17:27.764Z,60.80
2019-02-07T12:20:11.900Z,60.60
2019-02-07T12:22:51.096Z,60.30
2019-02-07T12:25:39.439Z,60.30
2019-02-07T12:28:42.696Z,60.20
2019-02-07T12:31:37.128Z,60.30
2019-02-07T12:34:31.433Z,60.30
2019-02-07T12:37:19.731Z,60.00
2019-02-07T12:40:19.768Z,59.90
2019-02-07T12:43:06.990Z,59.80
2019-02-07T12:45:53.166Z,59.80
2019-02-07T12:48:41.486Z,59.90
2019-02-07T12:51:28.411Z,59.90
2019-02-07T12:54:16.763Z,59.80
2019-02-07T12:56:52.332Z,59.80
2019-02-07T12:59:43.227Z,60.00
2019-02-07T13:02:31.016Z,60.90
2019-02-07T13:05:18.451Z,60.00
2019-02-07T13:08:02.320Z,60.10
2019-02-07T13:11:09.002Z,60.10
2019-02-07T13:13:51.487Z,60.20
2019-02-07T13:16:58.103Z,60.40
2019-02-07T13:19:45.131Z,60.50
2019-02-07T13:22:32.216Z,60.80
2019-02-07T13:25:20.553Z,60.90
2019-02-07T13:28:23.815Z,61.00
2019-02-07T13:31:27.412Z,61.20
2019-02-07T13:34:22.320Z,61.20
2019-02-07T13:37:00.655Z,61.40
2019-02-07T13:40:04.115Z,61.60
2019-02-07T13:42:50.945Z,61.80
2019-02-07T13:45:39.283Z,62.00
2019-02-07T13:48:29.091Z,62.00
2019-02-07T13:51:16.078Z,62.10
2019-02-07T13:53:51.346Z,62.00
2019-02-07T13:56:36.443Z,62.00
2019-02-07T13:59:27.776Z,62.00
2019-02-07T14:02:16.066Z,62.10
2019-02-07T14:05:16.222Z,62.00
2019-02-07T14:08:13.211Z,62.00
2019-02-07T14:11:00.602Z,61.90
2019-02-07T14:13:57.761Z,61.80
2019-02-07T14:17:04.350Z,61.80
2019-02-07T14:20:02.987Z,61.80
2019-02-07T14:22:41.485Z,61.90
2019-02-07T14:25:42.138Z,62.10
2019-02-07T14:28:19.094Z,62.20
2019-02-07T14:31:10.470Z,62.40
2019-02-07T14:34:04.777Z,62.40
2019-02-07T14:36:48.497Z,62.50
2019-02-07T14:39:35.706Z,62.60
2019-02-07T14:42:29.797Z,62.80
2019-02-07T14:45:36.705Z,62.90
2019-02-07T14:48:06.029Z,63.00
2019-02-07T14:50:35.324Z,63.20
2019-02-07T14:53:04.930Z,63.30
2019-02-07T14:55:34.313Z,63.40
2019-02-07T14:58:03.750Z,63.60
2019-02-07T15:00:33.033Z,63.90
2019-02-07T15:03:02.362Z,63.90
2019-02-07T15:05:31.651Z,64.10
2019-02-07T15:08:01.348Z,64.10
2019-02-07T15:10:30.693Z,64.20
2019-02-07T15:13:01.292Z,64.40
2019-02-07T15:15:31.113Z,64.40
2019-02-07T15:18:00.361Z,64.40
2019-02-07T15:20:29.745Z,64.60
2019-02-07T15:22:59.449Z,64.80
2019-02-07T15:25:28.757Z,64.80
2019-02-07T15:27:58.034Z,64.90
2019-02-07T15:30:27.349Z,65.10
2019-02-07T15:32:56.629Z,65.40
2019-02-07T15:35:29.428Z,65.50
2019-02-07T15:37:59.000Z,65.50
2019-02-07T15:40:28.389Z,65.80
2019-02-07T15:42:58.086Z,65.90
2019-02-07T15:45:27.796Z,66.00
2019-02-07T15:47:57.989Z,66.20
2019-02-07T15:50:37.720Z,66.30
2019-02-07T15:53:00.173Z,66.50
2019-02-07T15:55:29.572Z,66.50
2019-02-07T15:57:59.056Z,66.60
2019-02-07T16:01:02.644Z,66.70
2019-02-07T16:03:37.716Z,66.80
2019-02-07T16:06:07.128Z,66.90
2019-02-07T16:08:36.424Z,67.00
2019-02-07T16:11:07.013Z,67.10
2019-02-07T16:13:36.626Z,67.80
2019-02-07T16:16:05.977Z,67.20
2019-02-07T16:18:35.304Z,67.20
2019-02-07T16:21:04.680Z,67.30
2019-02-07T16:23:34.057Z,67.50
2019-02-07T16:26:03.360Z,67.50
2019-02-07T16:28:32.910Z,67.50
2019-02-07T16:31:02.316Z,67.60
2019-02-07T16:33:31.591Z,67.70
2019-02-07T16:36:00.931Z,67.70
2019-02-07T16:38:30.304Z,67.70
2019-02-07T16:40:59.608Z,68.40
2019-02-07T16:43:28.995Z,67.90
2019-02-07T16:45:58.260Z,67.80
2019-02-07T16:48:27.671Z,67.80
2019-02-07T16:51:00.208Z,67.90
2019-02-07T16:53:27.953Z,68.10
2019-02-07T16:55:57.297Z,68.00
2019-02-07T16:58:26.611Z,68.00
2019-02-07T17:00:55.948Z,68.10
2019-02-07T17:03:25.568Z,68.40
2019-02-07T17:05:54.943Z,68.10
2019-02-07T17:08:24.239Z,68.20
2019-02-07T17:10:53.795Z,69.10
2019-02-07T17:13:23.067Z,68.30
2019-02-07T17:15:52.471Z,68.30
2019-02-07T17:18:21.819Z,68.30
2019-02-07T17:20:51.247Z,68.30
2019-02-07T17:23:20.548Z,68.30
2019-02-07T17:25:49.967Z,68.40
2019-02-07T17:28:19.229Z,68.40
2019-02-07T17:30:48.590Z,68.40
2019-02-07T17:33:17.974Z,68.40
2019-02-07T17:35:49.949Z,68.50
2019-02-07T17:38:18.312Z,68.50
2019-02-07T17:40:47.582Z,68.50
2019-02-07T17:43:16.900Z,68.60
2019-02-07T17:45:46.254Z,68.60
2019-02-07T17:48:15.546Z,68.60
2019-02-07T17:50:44.858Z,68.70
2019-02-07T17:53:14.318Z,68.70
2019-02-07T17:55:43.614Z,68.70
2019-02-07T17:58:12.890Z,68.80
2019-02-07T18:01:02.204Z,68.90
2019-02-07T18:03:31.894Z,68.80
2019-02-07T18:06:01.160Z,68.90
2019-02-07T18:08:30.946Z,68.90
2019-02-07T18:11:00.203Z,69.00
2019-02-07T18:13:29.819Z,69.20
2019-02-07T18:15:59.598Z,69.20
2019-02-07T18:18:29.062Z,69.30
2019-02-07T18:20:58.338Z,69.40
2019-02-07T18:23:27.926Z,69.50
2019-02-07T18:25:57.307Z,69.50
2019-02-07T18:28:26.678Z,69.50
2019-02-07T18:30:55.934Z,69.50
2019-02-07T18:33:25.309Z,69.60
2019-02-07T18:35:54.602Z,69.60
2019-02-07T18:38:24.198Z,69.70
2019-02-07T18:40:53.490Z,69.90
2019-02-07T18:43:22.737Z,70.10
2019-02-07T18:45:52.178Z,70.00
2019-02-07T18:48:21.437Z,70.20
2019-02-07T18:50:50.753Z,70.20
2019-02-07T18:53:19.981Z,70.30
2019-02-07T18:55:49.293Z,70.30
2019-02-07T18:58:18.575Z,70.40
2019-02-07T19:00:47.899Z,70.50
2019-02-07T19:03:17.215Z,70.50
2019-02-07T19:05:46.590Z,70.60
2019-02-07T19:08:15.846Z,70.70
2019-02-07T19:10:45.137Z,70.80
2019-02-07T19:13:14.425Z,70.90
2019-02-07T19:15:47.101Z,70.80
2019-02-07T19:18:16.473Z,70.90
2019-02-07T19:20:45.812Z,71.00
2019-02-07T19:23:15.121Z,71.10
2019-02-07T19:25:44.730Z,71.10
2019-02-07T19:28:14.036Z,71.30
2019-02-07T19:30:43.305Z,71.20
2019-02-07T19:33:12.621Z,71.30
2019-02-07T19:35:41.893Z,71.40
2019-02-07T19:38:11.196Z,71.40
2019-02-07T19:40:40.792Z,71.40
2019-02-07T19:43:10.072Z,71.40
2019-02-07T19:45:39.452Z,71.60
2019-02-07T19:48:08.736Z,71.50
2019-02-07T19:50:38.051Z,71.50
2019-02-07T19:53:07.340Z,71.40
2019-02-07T19:55:37.132Z,71.40
2019-02-07T19:58:06.716Z,71.50
2019-02-07T20:00:39.263Z,71.40
2019-02-07T20:03:07.420Z,71.40
2019-02-07T20:05:36.800Z,71.30
2019-02-07T20:08:06.100Z,71.40
2019-02-07T20:10:35.802Z,71.20
2019-02-07T20:13:05.328Z,71.20
2019-02-07T20:15:36.832Z,71.20
2019-02-07T20:18:07.652Z,71.10
2019-02-07T20:20:37.087Z,71.10
2019-02-07T20:23:06.471Z,71.00
2019-02-07T20:25:36.369Z,70.90
2019-02-07T20:28:05.923Z,70.80
2019-02-07T20:30:39.971Z,70.80
2019-02-07T20:33:10.201Z,70.70
2019-02-07T20:36:31.781Z,70.70
2019-02-07T20:39:01.251Z,70.60
2019-02-07T20:41:30.635Z,70.60
2019-02-07T20:44:00.003Z,70.60
2019-02-07T20:46:29.653Z,70.70
2019-02-07T20:48:58.955Z,70.50
2019-02-07T20:51:29.143Z,70.60
2019-02-07T20:53:58.423Z,70.60
2019-02-07T20:56:27.691Z,70.50
2019-02-07T20:58:57.070Z,70.50
2019-02-07T21:01:27.223Z,70.60
2019-02-07T21:03:56.927Z,70.50
2019-02-07T21:06:26.223Z,70.70
2019-02-07T21:08:55.611Z,70.70
2019-02-07T21:11:24.983Z,70.60
2019-02-07T21:13:54.292Z,70.60
2019-02-07T21:16:23.847Z,70.60
2019-02-07T21:18:53.507Z,70.70
2019-02-07T21:21:22.794Z,70.90
2019-02-07T21:23:52.054Z,71.10
2019-02-07T21:26:21.386Z,71.50
2019-02-07T21:28:50.731Z,72.10
2019-02-07T21:31:19.986Z,72.40
2019-02-07T21:33:49.458Z,72.90
2019-02-07T21:36:18.969Z,73.60
2019-02-07T21:38:48.254Z,74.10
2019-02-07T21:41:17.494Z,74.60
2019-02-07T21:43:50.010Z,75.20
2019-02-07T21:46:20.386Z,75.90
2019-02-07T21:48:49.712Z,76.60
2019-02-07T21:51:19.670Z,77.00
2019-02-07T21:53:49.046Z,77.50
2019-02-07T21:56:18.338Z,78.10
2019-02-07T21:58:47.590Z,78.90
2019-02-07T22:01:16.874Z,79.40
2019-02-07T22:03:46.384Z,80.00
2019-02-07T22:06:15.674Z,80.50
2019-02-07T22:08:44.967Z,80.90
2019-02-07T22:11:14.237Z,81.20
2019-02-07T22:13:43.517Z,81.50
2019-02-07T22:16:12.782Z,81.90
2019-02-07T22:18:42.037Z,82.20
2019-02-07T22:21:11.346Z,82.40
2019-02-07T22:23:40.701Z,82.70
2019-02-07T22:26:10.001Z,82.90
2019-02-07T22:28:39.398Z,83.00
2019-02-07T22:31:08.709Z,83.20
2019-02-07T22:33:38.021Z,83.30
2019-02-07T22:36:07.449Z,83.60
2019-02-07T22:38:36.705Z,83.80
2019-02-07T22:41:06.021Z,84.00
2019-02-07T22:43:35.350Z,84.10
2019-02-07T22:46:04.633Z,84.40
2019-02-07T22:48:33.888Z,84.70
2019-02-07T22:51:03.265Z,84.80
2019-02-07T22:53:32.773Z,84.90
2019-02-07T22:56:02.045Z,85.00
2019-02-07T22:58:31.321Z,85.10
2019-02-07T23:01:40.304Z,85.20
2019-02-07T23:04:09.997Z,85.40
2019-02-07T23:06:39.325Z,85.60
2019-02-07T23:09:15.005Z,85.70
2019-02-07T23:11:44.294Z,85.80
2019-02-07T23:14:13.656Z,85.80
2019-02-07T23:16:43.973Z,85.90
2019-02-07T23:19:13.382Z,85.90
2019-02-07T23:21:42.692Z,86.00
2019-02-07T23:24:12.117Z,86.00
2019-02-07T23:26:41.448Z,86.00
2019-02-07T23:29:10.796Z,85.90
2019-02-07T23:31:40.080Z,86.00
2019-02-07T23:34:09.388Z,86.00
2019-02-07T23:36:39.598Z,86.10
2019-02-07T23:39:10.608Z,86.10
2019-02-07T23:41:39.888Z,86.10
2019-02-07T23:44:09.483Z,86.10
2019-02-07T23:46:38.740Z,86.00
2019-02-07T23:49:08.048Z,86.10
2019-02-07T23:51:37.381Z,86.20
2019-02-07T23:54:06.664Z,86.20
2019-02-07T23:56:35.912Z,86.20
2019-02-07T23:59:05.610Z,86.20
